sensor_id;sensor_type;location;lat;lon;timestamp;P1;durP1;ratioP1;P2;durP2;ratioP2
39524;SDS011;25203;50.754;6.978;2022-12-07T00:00:42;64.28;;;37.40;;
39524;SDS011;25203;50.754;6.978;2022-12-07T00:02:42;68.20;;;35.38;;
39524;SDS011;25203;50.754;6.978;2022-12-07T00:04:43;59.05;;;36.00;;
39524;SDS011;25203;50.754;6.978;2022-12-07T00:06:44;63.70;;;36.22;;
39524;SDS011;25203;50.754;6.978;2022-12-07T00:08:46;65.35;;;37.22;;
39524;SDS011;25203;50.754;6.978;2022-12-07T00:10:47;57.65;;;34.97;;
39524;SDS011;25203;50.754;6.978;2022-12-07T00:12:48;63.60;;;35.75;;
39524;SDS011;25203;50.754;6.978;2022-12-07T00:14:48;64.03;;;37.33;;
39524;SDS011;25203;50.754;6.978;2022-12-07T00:16:50;59.65;;;34.20;;
39524;SDS011;25203;50.754;6.978;2022-12-07T00:18:51;59.65;;;34.95;;
39524;SDS011;25203;50.754;6.978;2022-12-07T00:20:52;60.30;;;35.63;;
39524;SDS011;25203;50.754;6.978;2022-12-07T00:22:53;61.97;;;35.22;;
39524;SDS011;25203;50.754;6.978;2022-12-07T00:24:53;59.92;;;34.45;;
39524;SDS011;25203;50.754;6.978;2022-12-07T00:26:54;53.28;;;32.90;;
39524;SDS011;25203;50.754;6.978;2022-12-07T00:28:55;58.55;;;34.97;;
39524;SDS011;25203;50.754;6.978;2022-12-07T00:31:01;58.55;;;35.20;;
39524;SDS011;25203;50.754;6.978;2022-12-07T00:33:03;60.13;;;34.72;;
39524;SDS011;25203;50.754;6.978;2022-12-07T00:35:04;55.45;;;33.67;;
39524;SDS011;25203;50.754;6.978;2022-12-07T00:37:05;55.53;;;35.47;;
39524;SDS011;25203;50.754;6.978;2022-12-07T00:39:05;52.92;;;34.30;;
39524;SDS011;25203;50.754;6.978;2022-12-07T00:41:07;55.47;;;33.67;;
39524;SDS011;25203;50.754;6.978;2022-12-07T00:43:13;51.30;;;33.60;;
39524;SDS011;25203;50.754;6.978;2022-12-07T00:45:14;56.25;;;34.70;;
39524;SDS011;25203;50.754;6.978;2022-12-07T00:47:14;54.72;;;34.38;;
39524;SDS011;25203;50.754;6.978;2022-12-07T00:49:15;55.60;;;34.65;;
39524;SDS011;25203;50.754;6.978;2022-12-07T00:51:16;51.40;;;33.17;;
39524;SDS011;25203;50.754;6.978;2022-12-07T00:53:34;54.70;;;33.83;;
39524;SDS011;25203;50.754;6.978;2022-12-07T00:55:35;51.92;;;33.08;;
39524;SDS011;25203;50.754;6.978;2022-12-07T00:57:36;52.03;;;34.67;;
39524;SDS011;25203;50.754;6.978;2022-12-07T00:59:36;50.17;;;33.85;;
39524;SDS011;25203;50.754;6.978;2022-12-07T01:01:37;52.70;;;35.95;;
39524;SDS011;25203;50.754;6.978;2022-12-07T01:03:38;53.75;;;33.33;;
39524;SDS011;25203;50.754;6.978;2022-12-07T01:05:39;56.08;;;35.28;;
39524;SDS011;25203;50.754;6.978;2022-12-07T01:07:39;50.90;;;33.58;;
39524;SDS011;25203;50.754;6.978;2022-12-07T01:09:40;57.08;;;35.95;;
39524;SDS011;25203;50.754;6.978;2022-12-07T01:11:40;54.60;;;35.13;;
39524;SDS011;25203;50.754;6.978;2022-12-07T01:13:42;56.30;;;33.88;;
39524;SDS011;25203;50.754;6.978;2022-12-07T01:15:44;56.30;;;35.30;;
39524;SDS011;25203;50.754;6.978;2022-12-07T01:17:44;55.83;;;34.67;;
39524;SDS011;25203;50.754;6.978;2022-12-07T01:19:45;52.97;;;34.60;;
39524;SDS011;25203;50.754;6.978;2022-12-07T01:21:45;52.97;;;33.58;;
39524;SDS011;25203;50.754;6.978;2022-12-07T01:23:46;57.42;;;33.63;;
39524;SDS011;25203;50.754;6.978;2022-12-07T01:25:53;55.13;;;33.78;;
39524;SDS011;25203;50.754;6.978;2022-12-07T01:27:57;55.30;;;34.80;;
39524;SDS011;25203;50.754;6.978;2022-12-07T01:29:58;56.08;;;34.90;;
39524;SDS011;25203;50.754;6.978;2022-12-07T01:31:58;50.08;;;34.15;;
39524;SDS011;25203;50.754;6.978;2022-12-07T01:33:59;58.08;;;34.53;;
39524;SDS011;25203;50.754;6.978;2022-12-07T01:36:04;55.03;;;34.65;;
39524;SDS011;25203;50.754;6.978;2022-12-07T01:38:12;54.00;;;35.08;;
39524;SDS011;25203;50.754;6.978;2022-12-07T01:40:13;50.45;;;33.22;;
39524;SDS011;25203;50.754;6.978;2022-12-07T01:42:13;53.08;;;33.03;;
39524;SDS011;25203;50.754;6.978;2022-12-07T01:44:24;51.33;;;33.83;;
39524;SDS011;25203;50.754;6.978;2022-12-07T01:46:32;56.15;;;35.15;;
39524;SDS011;25203;50.754;6.978;2022-12-07T01:48:38;58.67;;;36.10;;
39524;SDS011;25203;50.754;6.978;2022-12-07T01:50:42;53.03;;;33.97;;
39524;SDS011;25203;50.754;6.978;2022-12-07T01:52:45;56.25;;;35.67;;
39524;SDS011;25203;50.754;6.978;2022-12-07T01:54:51;53.72;;;34.58;;
39524;SDS011;25203;50.754;6.978;2022-12-07T01:56:54;62.30;;;36.38;;
39524;SDS011;25203;50.754;6.978;2022-12-07T01:58:57;54.15;;;34.55;;
39524;SDS011;25203;50.754;6.978;2022-12-07T02:00:59;61.08;;;37.08;;
39524;SDS011;25203;50.754;6.978;2022-12-07T02:03:04;63.38;;;35.95;;
39524;SDS011;25203;50.754;6.978;2022-12-07T02:05:11;53.33;;;36.22;;
39524;SDS011;25203;50.754;6.978;2022-12-07T02:07:13;58.83;;;37.10;;
39524;SDS011;25203;50.754;6.978;2022-12-07T02:09:13;55.97;;;36.92;;
39524;SDS011;25203;50.754;6.978;2022-12-07T02:11:14;60.33;;;37.95;;
39524;SDS011;25203;50.754;6.978;2022-12-07T02:13:16;58.03;;;39.10;;
39524;SDS011;25203;50.754;6.978;2022-12-07T02:15:22;58.17;;;37.45;;
39524;SDS011;25203;50.754;6.978;2022-12-07T02:24:18;68.47;;;37.22;;
39524;SDS011;25203;50.754;6.978;2022-12-07T02:31:13;62.60;;;37.28;;
39524;SDS011;25203;50.754;6.978;2022-12-07T02:33:26;62.25;;;37.30;;
39524;SDS011;25203;50.754;6.978;2022-12-07T02:35:36;57.67;;;35.72;;
39524;SDS011;25203;50.754;6.978;2022-12-07T02:39:57;53.33;;;34.50;;
39524;SDS011;25203;50.754;6.978;2022-12-07T02:42:07;62.38;;;37.80;;
39524;SDS011;25203;50.754;6.978;2022-12-07T02:44:15;55.20;;;37.30;;
39524;SDS011;25203;50.754;6.978;2022-12-07T02:46:21;59.45;;;35.55;;
39524;SDS011;25203;50.754;6.978;2022-12-07T02:48:29;62.58;;;36.83;;
39524;SDS011;25203;50.754;6.978;2022-12-07T02:50:33;55.83;;;36.13;;
39524;SDS011;25203;50.754;6.978;2022-12-07T02:52:33;57.03;;;36.60;;
39524;SDS011;25203;50.754;6.978;2022-12-07T02:54:34;55.83;;;35.80;;
39524;SDS011;25203;50.754;6.978;2022-12-07T03:01:24;62.00;;;36.40;;
39524;SDS011;25203;50.754;6.978;2022-12-07T03:03:41;64.40;;;36.47;;
39524;SDS011;25203;50.754;6.978;2022-12-07T03:10:24;63.97;;;37.00;;
39524;SDS011;25203;50.754;6.978;2022-12-07T03:12:36;63.95;;;37.38;;
39524;SDS011;25203;50.754;6.978;2022-12-07T03:14:46;61.80;;;37.95;;
39524;SDS011;25203;50.754;6.978;2022-12-07T03:16:57;59.08;;;36.25;;
39524;SDS011;25203;50.754;6.978;2022-12-07T03:19:13;65.88;;;38.08;;
39524;SDS011;25203;50.754;6.978;2022-12-07T03:21:21;59.20;;;34.47;;
39524;SDS011;25203;50.754;6.978;2022-12-07T03:23:25;50.97;;;33.72;;
39524;SDS011;25203;50.754;6.978;2022-12-07T03:25:26;60.78;;;36.70;;
39524;SDS011;25203;50.754;6.978;2022-12-07T03:27:30;60.55;;;37.45;;
39524;SDS011;25203;50.754;6.978;2022-12-07T03:29:38;58.20;;;36.08;;
39524;SDS011;25203;50.754;6.978;2022-12-07T03:31:45;56.05;;;36.33;;
39524;SDS011;25203;50.754;6.978;2022-12-07T03:36:01;58.00;;;35.28;;
39524;SDS011;25203;50.754;6.978;2022-12-07T03:40:24;55.75;;;34.08;;
39524;SDS011;25203;50.754;6.978;2022-12-07T03:42:39;51.30;;;33.70;;
39524;SDS011;25203;50.754;6.978;2022-12-07T03:44:40;52.33;;;34.78;;
39524;SDS011;25203;50.754;6.978;2022-12-07T03:46:44;52.75;;;34.97;;
39524;SDS011;25203;50.754;6.978;2022-12-07T03:50:57;56.25;;;35.05;;
39524;SDS011;25203;50.754;6.978;2022-12-07T03:53:15;56.45;;;35.20;;
39524;SDS011;25203;50.754;6.978;2022-12-07T03:55:27;52.13;;;35.67;;
39524;SDS011;25203;50.754;6.978;2022-12-07T03:57:29;56.45;;;37.22;;
39524;SDS011;25203;50.754;6.978;2022-12-07T03:59:32;59.35;;;37.47;;
39524;SDS011;25203;50.754;6.978;2022-12-07T04:01:33;58.28;;;37.00;;
39524;SDS011;25203;50.754;6.978;2022-12-07T04:03:34;60.00;;;38.03;;
39524;SDS011;25203;50.754;6.978;2022-12-07T04:05:34;59.30;;;37.42;;
39524;SDS011;25203;50.754;6.978;2022-12-07T04:07:35;61.75;;;38.03;;
39524;SDS011;25203;50.754;6.978;2022-12-07T04:09:35;60.30;;;38.05;;
39524;SDS011;25203;50.754;6.978;2022-12-07T04:11:36;62.03;;;37.08;;
39524;SDS011;25203;50.754;6.978;2022-12-07T04:13:37;59.75;;;37.35;;
39524;SDS011;25203;50.754;6.978;2022-12-07T04:15:57;60.78;;;36.30;;
39524;SDS011;25203;50.754;6.978;2022-12-07T04:18:04;57.42;;;37.60;;
39524;SDS011;25203;50.754;6.978;2022-12-07T04:20:05;59.33;;;38.33;;
39524;SDS011;25203;50.754;6.978;2022-12-07T04:22:06;69.00;;;40.17;;
39524;SDS011;25203;50.754;6.978;2022-12-07T04:24:07;61.22;;;38.20;;
39524;SDS011;25203;50.754;6.978;2022-12-07T04:26:08;60.90;;;38.22;;
39524;SDS011;25203;50.754;6.978;2022-12-07T04:28:08;73.10;;;41.83;;
39524;SDS011;25203;50.754;6.978;2022-12-07T04:30:09;68.68;;;39.00;;
39524;SDS011;25203;50.754;6.978;2022-12-07T04:32:10;67.65;;;39.53;;
39524;SDS011;25203;50.754;6.978;2022-12-07T04:34:10;73.70;;;42.92;;
39524;SDS011;25203;50.754;6.978;2022-12-07T04:36:12;65.82;;;39.97;;
39524;SDS011;25203;50.754;6.978;2022-12-07T04:38:12;72.50;;;40.20;;
39524;SDS011;25203;50.754;6.978;2022-12-07T04:40:13;74.13;;;40.60;;
39524;SDS011;25203;50.754;6.978;2022-12-07T04:42:14;64.15;;;38.63;;
39524;SDS011;25203;50.754;6.978;2022-12-07T04:44:15;69.82;;;39.95;;
39524;SDS011;25203;50.754;6.978;2022-12-07T04:46:17;66.25;;;37.17;;
39524;SDS011;25203;50.754;6.978;2022-12-07T04:48:17;67.90;;;38.22;;
39524;SDS011;25203;50.754;6.978;2022-12-07T04:50:18;68.60;;;37.78;;
39524;SDS011;25203;50.754;6.978;2022-12-07T04:52:19;70.70;;;39.75;;
39524;SDS011;25203;50.754;6.978;2022-12-07T04:54:19;72.93;;;40.25;;
39524;SDS011;25203;50.754;6.978;2022-12-07T04:56:21;73.10;;;38.00;;
39524;SDS011;25203;50.754;6.978;2022-12-07T04:58:22;61.95;;;37.83;;
39524;SDS011;25203;50.754;6.978;2022-12-07T05:00:23;66.53;;;38.40;;
39524;SDS011;25203;50.754;6.978;2022-12-07T05:02:25;70.88;;;36.72;;
39524;SDS011;25203;50.754;6.978;2022-12-07T05:06:26;70.25;;;39.50;;
39524;SDS011;25203;50.754;6.978;2022-12-07T05:08:27;71.05;;;40.08;;
39524;SDS011;25203;50.754;6.978;2022-12-07T05:10:28;67.63;;;38.38;;
39524;SDS011;25203;50.754;6.978;2022-12-07T05:12:29;79.43;;;42.03;;
39524;SDS011;25203;50.754;6.978;2022-12-07T05:14:29;74.75;;;36.72;;
39524;SDS011;25203;50.754;6.978;2022-12-07T05:16:30;68.53;;;37.40;;
39524;SDS011;25203;50.754;6.978;2022-12-07T05:18:31;68.82;;;37.70;;
39524;SDS011;25203;50.754;6.978;2022-12-07T05:20:31;72.55;;;37.25;;
39524;SDS011;25203;50.754;6.978;2022-12-07T05:24:32;64.82;;;36.65;;
39524;SDS011;25203;50.754;6.978;2022-12-07T05:26:33;63.47;;;34.78;;
39524;SDS011;25203;50.754;6.978;2022-12-07T05:36:39;63.75;;;32.97;;
39524;SDS011;25203;50.754;6.978;2022-12-07T05:38:40;62.03;;;31.83;;
39524;SDS011;25203;50.754;6.978;2022-12-07T05:40:41;58.08;;;33.45;;
39524;SDS011;25203;50.754;6.978;2022-12-07T05:42:42;58.47;;;32.88;;
39524;SDS011;25203;50.754;6.978;2022-12-07T05:44:44;61.22;;;33.97;;
39524;SDS011;25203;50.754;6.978;2022-12-07T05:46:45;60.80;;;35.05;;
39524;SDS011;25203;50.754;6.978;2022-12-07T05:48:46;68.82;;;36.50;;
39524;SDS011;25203;50.754;6.978;2022-12-07T05:50:47;73.47;;;37.95;;
39524;SDS011;25203;50.754;6.978;2022-12-07T05:54:59;65.88;;;35.90;;
39524;SDS011;25203;50.754;6.978;2022-12-07T05:57:00;71.63;;;36.97;;
39524;SDS011;25203;50.754;6.978;2022-12-07T05:59:00;63.35;;;35.47;;
39524;SDS011;25203;50.754;6.978;2022-12-07T06:01:20;68.00;;;35.33;;
39524;SDS011;25203;50.754;6.978;2022-12-07T06:03:21;61.33;;;36.53;;
39524;SDS011;25203;50.754;6.978;2022-12-07T06:05:21;69.05;;;38.10;;
39524;SDS011;25203;50.754;6.978;2022-12-07T06:07:22;69.40;;;36.85;;
39524;SDS011;25203;50.754;6.978;2022-12-07T06:09:23;66.13;;;37.38;;
39524;SDS011;25203;50.754;6.978;2022-12-07T06:11:25;69.55;;;37.15;;
39524;SDS011;25203;50.754;6.978;2022-12-07T06:13:44;61.67;;;35.05;;
39524;SDS011;25203;50.754;6.978;2022-12-07T06:15:45;81.80;;;38.15;;
39524;SDS011;25203;50.754;6.978;2022-12-07T06:17:47;63.90;;;35.47;;
39524;SDS011;25203;50.754;6.978;2022-12-07T06:19:48;63.13;;;35.90;;
39524;SDS011;25203;50.754;6.978;2022-12-07T06:21:49;66.45;;;35.70;;
39524;SDS011;25203;50.754;6.978;2022-12-07T06:23:49;66.93;;;36.80;;
39524;SDS011;25203;50.754;6.978;2022-12-07T06:25:50;61.38;;;34.00;;
39524;SDS011;25203;50.754;6.978;2022-12-07T06:27:51;62.70;;;36.20;;
39524;SDS011;25203;50.754;6.978;2022-12-07T06:29:52;70.45;;;35.85;;
39524;SDS011;25203;50.754;6.978;2022-12-07T06:31:53;62.92;;;35.92;;
39524;SDS011;25203;50.754;6.978;2022-12-07T06:34:00;69.85;;;34.97;;
39524;SDS011;25203;50.754;6.978;2022-12-07T06:36:03;62.72;;;34.67;;
39524;SDS011;25203;50.754;6.978;2022-12-07T06:38:05;61.72;;;36.03;;
39524;SDS011;25203;50.754;6.978;2022-12-07T06:40:07;60.03;;;33.47;;
39524;SDS011;25203;50.754;6.978;2022-12-07T06:42:08;62.22;;;34.55;;
39524;SDS011;25203;50.754;6.978;2022-12-07T06:44:09;59.63;;;33.03;;
39524;SDS011;25203;50.754;6.978;2022-12-07T06:46:10;63.05;;;32.67;;
39524;SDS011;25203;50.754;6.978;2022-12-07T06:48:10;61.58;;;31.33;;
39524;SDS011;25203;50.754;6.978;2022-12-07T06:50:11;43.17;;;25.92;;
39524;SDS011;25203;50.754;6.978;2022-12-07T06:52:13;51.97;;;27.52;;
39524;SDS011;25203;50.754;6.978;2022-12-07T06:54:14;47.33;;;25.90;;
39524;SDS011;25203;50.754;6.978;2022-12-07T06:56:15;50.92;;;26.08;;
39524;SDS011;25203;50.754;6.978;2022-12-07T06:58:17;42.90;;;23.10;;
39524;SDS011;25203;50.754;6.978;2022-12-07T07:00:18;46.97;;;25.63;;
39524;SDS011;25203;50.754;6.978;2022-12-07T07:02:19;43.00;;;25.90;;
39524;SDS011;25203;50.754;6.978;2022-12-07T07:04:19;42.53;;;24.33;;
39524;SDS011;25203;50.754;6.978;2022-12-07T07:06:20;45.97;;;25.00;;
39524;SDS011;25203;50.754;6.978;2022-12-07T07:08:20;42.15;;;25.83;;
39524;SDS011;25203;50.754;6.978;2022-12-07T07:10:21;50.60;;;26.70;;
39524;SDS011;25203;50.754;6.978;2022-12-07T07:12:22;41.25;;;25.80;;
39524;SDS011;25203;50.754;6.978;2022-12-07T07:14:22;44.50;;;25.23;;
39524;SDS011;25203;50.754;6.978;2022-12-07T07:16:23;46.50;;;26.55;;
39524;SDS011;25203;50.754;6.978;2022-12-07T07:18:24;51.28;;;27.98;;
39524;SDS011;25203;50.754;6.978;2022-12-07T07:20:25;55.00;;;28.83;;
39524;SDS011;25203;50.754;6.978;2022-12-07T07:22:26;46.58;;;27.52;;
39524;SDS011;25203;50.754;6.978;2022-12-07T07:24:26;51.75;;;28.55;;
39524;SDS011;25203;50.754;6.978;2022-12-07T07:26:27;53.38;;;28.80;;
39524;SDS011;25203;50.754;6.978;2022-12-07T07:28:27;51.55;;;29.50;;
39524;SDS011;25203;50.754;6.978;2022-12-07T07:30:28;55.42;;;28.52;;
39524;SDS011;25203;50.754;6.978;2022-12-07T07:32:29;53.00;;;29.05;;
39524;SDS011;25203;50.754;6.978;2022-12-07T07:34:29;54.47;;;29.55;;
39524;SDS011;25203;50.754;6.978;2022-12-07T07:36:30;53.25;;;30.50;;
39524;SDS011;25203;50.754;6.978;2022-12-07T07:38:30;51.47;;;29.35;;
39524;SDS011;25203;50.754;6.978;2022-12-07T07:40:31;53.22;;;30.30;;
39524;SDS011;25203;50.754;6.978;2022-12-07T07:42:32;54.83;;;29.60;;
39524;SDS011;25203;50.754;6.978;2022-12-07T07:44:33;54.10;;;28.77;;
39524;SDS011;25203;50.754;6.978;2022-12-07T07:46:34;50.72;;;29.77;;
39524;SDS011;25203;50.754;6.978;2022-12-07T07:48:35;55.70;;;30.00;;
39524;SDS011;25203;50.754;6.978;2022-12-07T07:50:35;57.72;;;29.58;;
39524;SDS011;25203;50.754;6.978;2022-12-07T07:52:36;51.28;;;29.23;;
39524;SDS011;25203;50.754;6.978;2022-12-07T07:54:36;52.88;;;28.88;;
39524;SDS011;25203;50.754;6.978;2022-12-07T07:56:37;56.85;;;29.67;;
39524;SDS011;25203;50.754;6.978;2022-12-07T07:58:37;51.67;;;27.58;;
39524;SDS011;25203;50.754;6.978;2022-12-07T08:00:39;49.15;;;28.67;;
39524;SDS011;25203;50.754;6.978;2022-12-07T08:02:40;52.33;;;28.42;;
39524;SDS011;25203;50.754;6.978;2022-12-07T08:04:42;52.28;;;28.75;;
39524;SDS011;25203;50.754;6.978;2022-12-07T08:06:43;57.20;;;30.08;;
39524;SDS011;25203;50.754;6.978;2022-12-07T08:08:44;48.28;;;29.92;;
39524;SDS011;25203;50.754;6.978;2022-12-07T08:10:45;51.75;;;31.60;;
39524;SDS011;25203;50.754;6.978;2022-12-07T08:12:45;62.22;;;30.15;;
39524;SDS011;25203;50.754;6.978;2022-12-07T08:15:04;56.35;;;30.05;;
39524;SDS011;25203;50.754;6.978;2022-12-07T08:17:05;47.50;;;29.58;;
39524;SDS011;25203;50.754;6.978;2022-12-07T08:19:06;51.30;;;30.10;;
39524;SDS011;25203;50.754;6.978;2022-12-07T08:21:07;47.97;;;29.20;;
39524;SDS011;25203;50.754;6.978;2022-12-07T08:23:10;53.88;;;29.77;;
39524;SDS011;25203;50.754;6.978;2022-12-07T08:25:11;54.33;;;28.58;;
39524;SDS011;25203;50.754;6.978;2022-12-07T08:27:11;48.78;;;28.67;;
39524;SDS011;25203;50.754;6.978;2022-12-07T08:29:12;59.65;;;28.35;;
39524;SDS011;25203;50.754;6.978;2022-12-07T08:31:14;53.20;;;28.35;;
39524;SDS011;25203;50.754;6.978;2022-12-07T08:33:16;49.70;;;29.23;;
39524;SDS011;25203;50.754;6.978;2022-12-07T08:35:17;42.95;;;27.17;;
39524;SDS011;25203;50.754;6.978;2022-12-07T08:37:17;48.92;;;27.02;;
39524;SDS011;25203;50.754;6.978;2022-12-07T08:39:18;54.53;;;27.48;;
39524;SDS011;25203;50.754;6.978;2022-12-07T08:41:19;41.53;;;25.08;;
39524;SDS011;25203;50.754;6.978;2022-12-07T08:43:19;43.85;;;25.30;;
39524;SDS011;25203;50.754;6.978;2022-12-07T08:45:20;37.58;;;23.05;;
39524;SDS011;25203;50.754;6.978;2022-12-07T08:47:21;33.80;;;22.60;;
39524;SDS011;25203;50.754;6.978;2022-12-07T08:49:24;32.55;;;21.05;;
39524;SDS011;25203;50.754;6.978;2022-12-07T08:51:27;28.80;;;19.40;;
39524;SDS011;25203;50.754;6.978;2022-12-07T08:53:28;34.83;;;19.13;;
39524;SDS011;25203;50.754;6.978;2022-12-07T08:55:29;34.10;;;19.40;;
39524;SDS011;25203;50.754;6.978;2022-12-07T08:57:31;42.35;;;22.25;;
39524;SDS011;25203;50.754;6.978;2022-12-07T08:59:34;32.95;;;20.95;;
39524;SDS011;25203;50.754;6.978;2022-12-07T09:01:36;38.53;;;19.85;;
39524;SDS011;25203;50.754;6.978;2022-12-07T09:03:36;32.25;;;19.55;;
39524;SDS011;25203;50.754;6.978;2022-12-07T09:05:37;32.05;;;21.15;;
39524;SDS011;25203;50.754;6.978;2022-12-07T09:07:37;34.08;;;20.90;;
39524;SDS011;25203;50.754;6.978;2022-12-07T09:09:38;27.90;;;18.88;;
39524;SDS011;25203;50.754;6.978;2022-12-07T09:11:39;29.45;;;17.23;;
39524;SDS011;25203;50.754;6.978;2022-12-07T09:13:40;24.30;;;15.48;;
39524;SDS011;25203;50.754;6.978;2022-12-07T09:15:40;26.50;;;16.45;;
39524;SDS011;25203;50.754;6.978;2022-12-07T09:17:41;31.58;;;17.33;;
39524;SDS011;25203;50.754;6.978;2022-12-07T09:19:41;27.35;;;17.80;;
39524;SDS011;25203;50.754;6.978;2022-12-07T09:21:42;27.05;;;16.42;;
39524;SDS011;25203;50.754;6.978;2022-12-07T09:23:43;34.15;;;18.50;;
39524;SDS011;25203;50.754;6.978;2022-12-07T09:25:43;26.67;;;15.90;;
39524;SDS011;25203;50.754;6.978;2022-12-07T09:27:44;28.15;;;16.02;;
39524;SDS011;25203;50.754;6.978;2022-12-07T09:29:44;24.65;;;15.98;;
39524;SDS011;25203;50.754;6.978;2022-12-07T09:31:45;28.13;;;16.60;;
39524;SDS011;25203;50.754;6.978;2022-12-07T09:33:46;27.05;;;16.95;;
39524;SDS011;25203;50.754;6.978;2022-12-07T09:35:47;38.08;;;18.55;;
39524;SDS011;25203;50.754;6.978;2022-12-07T09:37:50;28.00;;;16.65;;
39524;SDS011;25203;50.754;6.978;2022-12-07T09:39:51;25.60;;;15.63;;
39524;SDS011;25203;50.754;6.978;2022-12-07T09:41:51;26.60;;;16.02;;
39524;SDS011;25203;50.754;6.978;2022-12-07T09:43:53;29.00;;;17.40;;
39524;SDS011;25203;50.754;6.978;2022-12-07T09:46:06;24.80;;;17.00;;
39524;SDS011;25203;50.754;6.978;2022-12-07T09:50:42;23.73;;;13.73;;
39524;SDS011;25203;50.754;6.978;2022-12-07T09:52:44;19.92;;;11.93;;
39524;SDS011;25203;50.754;6.978;2022-12-07T09:54:48;21.00;;;11.43;;
39524;SDS011;25203;50.754;6.978;2022-12-07T09:56:50;18.23;;;10.35;;
39524;SDS011;25203;50.754;6.978;2022-12-07T09:58:53;18.13;;;10.70;;
39524;SDS011;25203;50.754;6.978;2022-12-07T10:01:00;19.20;;;11.52;;
39524;SDS011;25203;50.754;6.978;2022-12-07T10:03:21;19.30;;;11.77;;
39524;SDS011;25203;50.754;6.978;2022-12-07T10:05:44;20.65;;;12.68;;
39524;SDS011;25203;50.754;6.978;2022-12-07T10:07:45;19.88;;;12.45;;
39524;SDS011;25203;50.754;6.978;2022-12-07T10:09:45;21.27;;;12.57;;
39524;SDS011;25203;50.754;6.978;2022-12-07T10:14:11;24.33;;;12.80;;
39524;SDS011;25203;50.754;6.978;2022-12-07T10:20:36;18.10;;;11.65;;
39524;SDS011;25203;50.754;6.978;2022-12-07T10:22:38;19.00;;;11.43;;
39524;SDS011;25203;50.754;6.978;2022-12-07T10:24:53;27.35;;;12.73;;
39524;SDS011;25203;50.754;6.978;2022-12-07T10:26:54;21.27;;;11.02;;
39524;SDS011;25203;50.754;6.978;2022-12-07T10:28:55;18.73;;;11.80;;
39524;SDS011;25203;50.754;6.978;2022-12-07T10:31:18;21.08;;;11.20;;
39524;SDS011;25203;50.754;6.978;2022-12-07T10:33:32;17.48;;;10.38;;
39524;SDS011;25203;50.754;6.978;2022-12-07T10:35:52;17.27;;;10.48;;
39524;SDS011;25203;50.754;6.978;2022-12-07T10:37:53;18.17;;;11.15;;
39524;SDS011;25203;50.754;6.978;2022-12-07T10:39:56;19.73;;;10.38;;
39524;SDS011;25203;50.754;6.978;2022-12-07T10:42:01;14.98;;;9.52;;
39524;SDS011;25203;50.754;6.978;2022-12-07T10:44:03;17.08;;;9.32;;
39524;SDS011;25203;50.754;6.978;2022-12-07T10:46:13;14.82;;;9.02;;
39524;SDS011;25203;50.754;6.978;2022-12-07T10:50:35;17.10;;;8.02;;
39524;SDS011;25203;50.754;6.978;2022-12-07T11:00:02;15.52;;;8.30;;
39524;SDS011;25203;50.754;6.978;2022-12-07T11:04:50;11.88;;;7.32;;
39524;SDS011;25203;50.754;6.978;2022-12-07T11:07:04;12.57;;;7.32;;
39524;SDS011;25203;50.754;6.978;2022-12-07T11:11:37;15.20;;;7.53;;
39524;SDS011;25203;50.754;6.978;2022-12-07T11:13:56;11.97;;;7.30;;
39524;SDS011;25203;50.754;6.978;2022-12-07T11:16:24;16.05;;;6.75;;
39524;SDS011;25203;50.754;6.978;2022-12-07T11:28:31;12.18;;;6.75;;
39524;SDS011;25203;50.754;6.978;2022-12-07T11:31:03;15.82;;;7.10;;
39524;SDS011;25203;50.754;6.978;2022-12-07T11:33:36;11.45;;;5.70;;
39524;SDS011;25203;50.754;6.978;2022-12-07T11:35:53;13.30;;;6.72;;
39524;SDS011;25203;50.754;6.978;2022-12-07T11:38:08;12.60;;;6.88;;
39524;SDS011;25203;50.754;6.978;2022-12-07T11:42:21;10.75;;;6.03;;
39524;SDS011;25203;50.754;6.978;2022-12-07T11:46:43;12.40;;;6.68;;
39524;SDS011;25203;50.754;6.978;2022-12-07T11:50:56;13.50;;;6.70;;
39524;SDS011;25203;50.754;6.978;2022-12-07T11:55:14;13.10;;;6.85;;
39524;SDS011;25203;50.754;6.978;2022-12-07T11:57:29;13.43;;;6.90;;
39524;SDS011;25203;50.754;6.978;2022-12-07T11:59:38;15.23;;;7.18;;
39524;SDS011;25203;50.754;6.978;2022-12-07T12:01:56;16.55;;;7.22;;
39524;SDS011;25203;50.754;6.978;2022-12-07T12:06:26;16.75;;;6.85;;
39524;SDS011;25203;50.754;6.978;2022-12-07T12:08:31;11.32;;;6.82;;
39524;SDS011;25203;50.754;6.978;2022-12-07T12:13:09;17.50;;;7.78;;
39524;SDS011;25203;50.754;6.978;2022-12-07T12:20:39;16.92;;;8.32;;
39524;SDS011;25203;50.754;6.978;2022-12-07T12:22:54;13.65;;;6.88;;
39524;SDS011;25203;50.754;6.978;2022-12-07T12:27:49;16.95;;;7.97;;
39524;SDS011;25203;50.754;6.978;2022-12-07T12:29:53;14.23;;;7.18;;
39524;SDS011;25203;50.754;6.978;2022-12-07T12:32:12;15.25;;;6.68;;
39524;SDS011;25203;50.754;6.978;2022-12-07T12:36:58;12.88;;;6.53;;
39524;SDS011;25203;50.754;6.978;2022-12-07T12:41:50;17.13;;;7.47;;
39524;SDS011;25203;50.754;6.978;2022-12-07T12:43:56;11.10;;;6.43;;
39524;SDS011;25203;50.754;6.978;2022-12-07T12:46:35;13.90;;;7.20;;
39524;SDS011;25203;50.754;6.978;2022-12-07T12:48:29;13.20;;;7.47;;
39524;SDS011;25203;50.754;6.978;2022-12-07T12:50:37;19.10;;;7.80;;
39524;SDS011;25203;50.754;6.978;2022-12-07T12:54:39;16.88;;;9.15;;
39524;SDS011;25203;50.754;6.978;2022-12-07T12:59:40;19.25;;;8.75;;
39524;SDS011;25203;50.754;6.978;2022-12-07T13:04:31;16.23;;;9.38;;
39524;SDS011;25203;50.754;6.978;2022-12-07T13:06:39;21.55;;;8.65;;
39524;SDS011;25203;50.754;6.978;2022-12-07T13:08:43;16.67;;;9.05;;
39524;SDS011;25203;50.754;6.978;2022-12-07T13:10:44;20.60;;;10.43;;
39524;SDS011;25203;50.754;6.978;2022-12-07T13:13:46;24.50;;;10.35;;
39524;SDS011;25203;50.754;6.978;2022-12-07T13:21:43;23.75;;;11.13;;
39524;SDS011;25203;50.754;6.978;2022-12-07T13:25:48;24.05;;;10.52;;
39524;SDS011;25203;50.754;6.978;2022-12-07T13:28:18;18.70;;;9.52;;
39524;SDS011;25203;50.754;6.978;2022-12-07T13:30:21;18.02;;;8.32;;
39524;SDS011;25203;50.754;6.978;2022-12-07T13:32:23;16.88;;;8.18;;
39524;SDS011;25203;50.754;6.978;2022-12-07T13:34:35;16.10;;;8.75;;
39524;SDS011;25203;50.754;6.978;2022-12-07T13:36:46;20.05;;;9.95;;
39524;SDS011;25203;50.754;6.978;2022-12-07T13:38:51;20.45;;;8.75;;
39524;SDS011;25203;50.754;6.978;2022-12-07T13:41:03;20.30;;;9.27;;
39524;SDS011;25203;50.754;6.978;2022-12-07T13:43:17;15.80;;;8.98;;
39524;SDS011;25203;50.754;6.978;2022-12-07T13:45:23;20.25;;;10.85;;
39524;SDS011;25203;50.754;6.978;2022-12-07T13:47:46;21.48;;;8.82;;
39524;SDS011;25203;50.754;6.978;2022-12-07T13:49:54;16.67;;;9.93;;
39524;SDS011;25203;50.754;6.978;2022-12-07T13:52:06;19.48;;;10.20;;
39524;SDS011;25203;50.754;6.978;2022-12-07T13:54:16;15.27;;;10.35;;
39524;SDS011;25203;50.754;6.978;2022-12-07T13:56:17;16.77;;;7.95;;
39524;SDS011;25203;50.754;6.978;2022-12-07T13:58:18;17.25;;;9.80;;
39524;SDS011;25203;50.754;6.978;2022-12-07T14:02:29;23.70;;;10.90;;
39524;SDS011;25203;50.754;6.978;2022-12-07T14:04:33;18.83;;;9.57;;
39524;SDS011;25203;50.754;6.978;2022-12-07T14:06:34;22.80;;;9.68;;
39524;SDS011;25203;50.754;6.978;2022-12-07T14:08:35;14.30;;;7.40;;
39524;SDS011;25203;50.754;6.978;2022-12-07T14:10:39;11.02;;;6.43;;